createdAt,value
2023-03-23T15:59:44.922Z,1.70
2023-03-23T16:02:18.824Z,1.70
2023-03-23T16:04:47.671Z,1.63
2023-03-23T16:07:15.292Z,1.98
2023-03-23T16:09:42.609Z,1.87
2023-03-23T16:12:13.523Z,2.08
2023-03-23T16:14:41.572Z,2.28
2023-03-23T16:17:11.814Z,1.73
2023-03-23T16:19:38.953Z,1.75
2023-03-23T16:22:06.065Z,1.67
2023-03-23T16:24:33.184Z,1.67
2023-03-23T16:27:00.353Z,2.22
2023-03-23T16:29:40.556Z,2.30
2023-03-23T16:32:14.237Z,2.22
2023-03-23T16:34:41.345Z,1.97
2023-03-23T16:37:12.091Z,1.90
2023-03-23T16:39:39.265Z,1.95
2023-03-23T16:42:06.425Z,2.50
2023-03-23T16:44:33.534Z,2.17
2023-03-23T16:47:00.684Z,2.50
2023-03-23T16:49:27.888Z,2.80
2023-03-23T16:51:55.639Z,2.08
2023-03-23T16:54:22.938Z,2.35
2023-03-23T16:56:50.179Z,2.05
2023-03-23T16:59:17.336Z,1.70
2023-03-23T17:01:44.578Z,1.88
2023-03-23T17:04:12.092Z,2.28
2023-03-23T17:06:39.253Z,2.05
2023-03-23T17:09:07.810Z,1.90
2023-03-23T17:11:35.084Z,1.70
2023-03-23T17:14:02.280Z,1.70
2023-03-23T17:16:29.508Z,1.70
2023-03-23T17:18:56.694Z,1.85
2023-03-23T17:21:25.861Z,1.90
2023-03-23T17:23:53.711Z,1.30
2023-03-23T17:26:20.864Z,1.92
2023-03-23T17:28:48.161Z,1.60
2023-03-23T17:31:15.584Z,1.80
2023-03-23T17:33:42.803Z,2.08
2023-03-23T17:36:10.128Z,1.53
2023-03-23T17:38:37.264Z,1.83
2023-03-23T17:41:06.385Z,2.28
2023-03-23T17:43:33.765Z,1.63
2023-03-23T17:46:00.953Z,1.75
2023-03-23T17:48:28.136Z,1.40
2023-03-23T17:50:57.624Z,1.73
2023-03-23T17:53:25.549Z,1.65
2023-03-23T17:55:53.379Z,1.70
2023-03-23T17:58:20.850Z,1.80
2023-03-23T18:00:48.020Z,1.60
2023-03-23T18:03:15.640Z,1.80
2023-03-23T18:05:43.071Z,1.70
2023-03-23T18:08:10.748Z,1.60
2023-03-23T18:10:38.860Z,1.95
2023-03-23T18:13:06.735Z,1.30
2023-03-23T18:15:34.454Z,1.60
2023-03-23T18:18:03.541Z,1.60
2023-03-23T18:20:31.563Z,1.60
2023-03-23T18:22:59.314Z,1.70
2023-03-23T18:25:26.540Z,1.57
2023-03-23T18:27:53.666Z,1.70
2023-03-23T18:30:20.963Z,2.03
2023-03-23T18:32:48.185Z,1.80
2023-03-23T18:35:15.405Z,1.70
2023-03-23T18:37:43.590Z,1.80
2023-03-23T18:40:11.794Z,2.25
2023-03-23T18:42:40.465Z,2.38
2023-03-23T18:45:07.869Z,1.80
2023-03-23T18:47:37.529Z,1.80
2023-03-23T18:50:05.881Z,2.00
2023-03-23T18:52:34.022Z,1.67
2023-03-23T18:55:01.175Z,2.17
2023-03-23T18:57:28.866Z,2.20
2023-03-23T18:59:56.333Z,1.83
2023-03-23T19:02:23.756Z,2.17
2023-03-23T19:04:51.579Z,1.95
2023-03-23T19:07:19.836Z,2.08
2023-03-23T19:09:48.037Z,2.25
2023-03-23T19:12:15.826Z,2.22
2023-03-23T19:14:43.592Z,1.80
2023-03-23T19:17:11.249Z,2.42
2023-03-23T19:19:38.740Z,2.33
2023-03-23T19:22:08.584Z,2.10
2023-03-23T19:24:36.386Z,1.80
2023-03-23T19:27:03.472Z,2.20
2023-03-23T19:29:30.671Z,2.50
2023-03-23T19:31:58.354Z,2.40
2023-03-23T19:34:26.764Z,2.80
2023-03-23T19:36:56.369Z,2.45
2023-03-23T19:39:30.865Z,3.00
2023-03-23T19:41:58.075Z,2.60
2023-03-23T19:44:25.579Z,2.72
2023-03-23T19:46:53.019Z,2.33
2023-03-23T19:49:20.845Z,2.33
2023-03-23T19:51:48.041Z,2.77
2023-03-23T19:54:15.386Z,2.75
2023-03-23T19:56:43.406Z,2.33
2023-03-23T19:59:14.953Z,2.42
2023-03-23T20:01:43.057Z,3.03
2023-03-23T20:04:11.010Z,2.60
2023-03-23T20:06:38.255Z,3.10
2023-03-23T20:09:07.744Z,2.80
2023-03-23T20:11:35.189Z,3.00
2023-03-23T20:14:02.384Z,2.55
2023-03-23T20:16:29.547Z,2.67
2023-03-23T20:19:00.118Z,2.70
2023-03-23T20:21:27.733Z,2.83
2023-03-23T20:23:56.271Z,2.85
2023-03-23T20:26:28.540Z,2.70
2023-03-23T20:28:55.957Z,2.80
2023-03-23T20:31:24.740Z,2.80
2023-03-23T20:33:59.828Z,2.75
2023-03-23T20:36:29.947Z,3.10
2023-03-23T20:39:01.180Z,3.28
2023-03-23T20:41:28.618Z,2.80
2023-03-23T20:43:57.399Z,2.60
2023-03-23T20:46:25.663Z,3.30
2023-03-23T20:48:52.854Z,3.00
2023-03-23T20:51:20.966Z,3.50
2023-03-23T20:53:48.572Z,3.00
2023-03-23T20:56:16.044Z,3.00
2023-03-23T20:58:43.361Z,3.00
2023-03-23T21:01:11.999Z,2.97
2023-03-23T21:03:40.887Z,3.22
2023-03-23T21:06:08.565Z,2.73
2023-03-23T21:08:37.079Z,2.83
2023-03-23T21:11:05.052Z,2.90
2023-03-23T21:13:32.584Z,3.20
2023-03-23T21:16:02.026Z,3.00
2023-03-23T21:18:29.638Z,3.03
2023-03-23T21:20:57.277Z,2.58
2023-03-23T21:23:26.782Z,2.92
2023-03-23T21:25:54.855Z,2.90
2023-03-23T21:28:22.124Z,2.67
2023-03-23T21:30:50.966Z,2.90
2023-03-23T21:33:19.954Z,2.42
2023-03-23T21:35:47.240Z,2.80
2023-03-23T21:38:14.881Z,2.47
2023-03-23T21:40:42.729Z,2.88
2023-03-23T21:43:14.693Z,2.70
2023-03-23T21:45:42.477Z,2.50
2023-03-23T21:48:10.017Z,2.83
2023-03-23T21:50:44.252Z,2.35
2023-03-23T21:53:12.823Z,3.15
2023-03-23T21:55:43.957Z,2.67
2023-03-23T21:58:11.644Z,3.00
2023-03-23T22:00:38.780Z,2.78
2023-03-23T22:03:06.032Z,2.63
2023-03-23T22:05:33.273Z,2.40
2023-03-23T22:08:01.320Z,2.53
2023-03-23T22:10:28.536Z,2.20
2023-03-23T22:12:56.161Z,2.47
2023-03-23T22:15:27.850Z,2.50
2023-03-23T22:17:55.528Z,2.50
2023-03-23T22:20:22.835Z,2.50
2023-03-23T22:22:50.136Z,2.72
2023-03-23T22:25:17.488Z,2.33
2023-03-23T22:27:45.799Z,2.40
2023-03-23T22:30:13.043Z,2.70
2023-03-23T22:32:40.753Z,2.40
2023-03-23T22:35:08.103Z,2.35
2023-03-23T22:37:35.302Z,2.17
2023-03-23T22:40:02.457Z,2.67
2023-03-23T22:42:29.552Z,2.58
2023-03-23T22:44:56.697Z,2.67
2023-03-23T22:47:23.876Z,2.42
2023-03-23T22:49:51.060Z,2.38
2023-03-23T22:52:38.597Z,2.70
2023-03-23T22:55:06.806Z,2.40
2023-03-23T22:57:34.200Z,2.60
2023-03-23T23:00:01.379Z,2.13
2023-03-23T23:02:28.878Z,2.55
2023-03-23T23:04:57.119Z,2.30
2023-03-23T23:07:24.277Z,2.50
2023-03-23T23:09:52.048Z,2.53
2023-03-23T23:12:21.605Z,2.42
2023-03-23T23:14:48.803Z,2.58
2023-03-23T23:17:16.012Z,2.58
2023-03-23T23:19:43.433Z,2.17
2023-03-23T23:22:18.897Z,2.30
2023-03-23T23:24:46.645Z,2.50
2023-03-23T23:27:14.533Z,2.40
2023-03-23T23:29:41.722Z,2.03
2023-03-23T23:32:08.822Z,2.22
2023-03-23T23:34:36.728Z,2.40
2023-03-23T23:37:03.872Z,2.33
2023-03-23T23:39:31.090Z,2.00
2023-03-23T23:41:58.230Z,2.47
2023-03-23T23:44:25.611Z,2.67
2023-03-23T23:46:52.833Z,2.60
2023-03-23T23:49:22.950Z,2.30
2023-03-23T23:51:50.164Z,2.60
2023-03-23T23:54:22.595Z,2.13
2023-03-23T23:56:53.391Z,2.22
2023-03-23T23:59:20.637Z,2.33
